Etusivu
METAR-TAF:

METAR-TAF

Lentoasemat :

Lappeenrannan lentoasema

Lappeenranta, Suomi

Leveyspiiri: 61-02-45N, Pituuspiiri: 028-08-55E, korkeus merenpinnasta: 106 m

Tämänhetkinen sää

Tämä raportti tehtiin 32 minuuttia sitten, kello 09.20 UTC
Tuuli 6 kn kaakosta, vaihdellen idän ja etelän välillä
Lämpötila 3°C
Kosteus 100%
Ilmanpaine 1018 hPa
Näkyvyys: 2000 m
utua

METAR: EFLP 170920Z AUTO 13006KT 090V170 2000 BR VV002 03/03 Q1018

Aika: 11:52 (09:52 UTC)

Sääennuste

Tämä raportti tehtiin 16 tuntia ja 0 minuuttia sitten, kello 17.52 UTC
Ennuste voimassa 16. päivästä klo 18 UTC - 16. päivään klo 20 UTC
Tuuli 8 kn idästä/koillisesta
Näkyvyys 10 km tai enemmän
Pilvistä 300 ft:n korkeudessa
Ajoittain
16. päivästä klo 18 UTC - 16. päivään klo 20 UTC
Näkyvyys: 0400 m
Hajonneita pilviä 100 ft:n korkeudessa
jäätävää sumua

TAF: EFLP 161752Z 1618/1620 07008KT 9999 OVC003 TEMPO 1618/1620 0400 FZFG BKN001

Säähavainnot ja -ennusteet yli 4000 lentoasemalta (METAR- ja TAF-raportit).

Käytössä olevat sääasemat on merkitty karttaan keltaisilla ja punaisilla pisteillä.

Aseta hiiri pisteen päälle nähdäksesi sääaseman nimen.

Klikkaa sitten nähdäksesi säähavainnot ja -ennusteet.

Kartan vaihtaminen: klikkaa mustalla rastilla varustettuja vihreitä pisteitä, niin voit zoomata sisään; viivalla varustettua vihreää pistettä, niin voit zoomata ulos tai vihreitä nuolia, niin pääset viereisille kartoille.


METAR-TAF: